Thornley, United Kingdom
Current Conditions -  °F | °C
As of 6:50 AM on Friday 31 Oct 2014 (Local Time) from EGNV Reporting Station
Haze Haze  
Wind Chill: 57°   Ceiling: Unl
Heat Index: 57°   Visibility: 2.1mi
Dew Point: 54°   Wind: 9mph
Humidity: 88%   Direction: 180°S
Pressure: 29.88"   Gusts: NA
Location:  54.75°N, 1.43°W
Report Text: EGNV 310650Z 18008KT 3500 BR FEW020 14/12 Q1012
Loading
Personal Weather Stations






























Interactive Weather Map
Tropical Storm Tracking
New forecast layout! Learn more

10-Day Weather Forecast

Advertisements
Track Severe Weather on mobile